sensor_id;sensor_type;location;lat;lon;timestamp;temperature;humidity
70076;DHT22;63241;51.056;3.698;2022-12-17T08:28:26;-2.20;99.90
70076;DHT22;63241;51.056;3.698;2022-12-17T08:31:12;-2.20;99.90
70076;DHT22;63241;51.056;3.698;2022-12-17T08:33:57;-2.20;99.90
70076;DHT22;63241;51.056;3.698;2022-12-17T08:36:43;-2.10;99.90
70076;DHT22;63241;51.056;3.698;2022-12-17T08:43:37;-2.00;99.90
70076;DHT22;63241;51.056;3.698;2022-12-17T08:46:21;-1.90;99.90
70076;DHT22;63241;51.056;3.698;2022-12-17T08:49:07;-1.90;99.90
70076;DHT22;63241;51.056;3.698;2022-12-17T09:39:04;-0.70;99.90
70076;DHT22;63241;51.056;3.698;2022-12-17T09:59:03;-0.60;99.90
70076;DHT22;63241;51.056;3.698;2022-12-17T12:49:28;8.00;72.60
70076;DHT22;63241;51.056;3.698;2022-12-17T12:52:22;7.60;73.30
70076;DHT22;63241;51.056;3.698;2022-12-17T12:55:09;7.50;73.70
70076;DHT22;63241;51.056;3.698;2022-12-17T12:58:19;7.00;73.60
70076;DHT22;63241;51.056;3.698;2022-12-17T13:01:19;7.20;75.50
70076;DHT22;63241;51.056;3.698;2022-12-17T13:04:22;7.40;75.20
70076;DHT22;63241;51.056;3.698;2022-12-17T13:07:02;7.30;74.80
70076;DHT22;63241;51.056;3.698;2022-12-17T13:09:36;7.40;74.20
70076;DHT22;63241;51.056;3.698;2022-12-17T13:16:03;7.20;74.10
70076;DHT22;63241;51.056;3.698;2022-12-17T13:18:37;7.00;74.70
70076;DHT22;63241;51.056;3.698;2022-12-17T13:23:43;6.40;76.70
70076;DHT22;63241;51.056;3.698;2022-12-17T13:29:41;6.40;78.10
70076;DHT22;63241;51.056;3.698;2022-12-17T13:32:19;6.40;77.40
70076;DHT22;63241;51.056;3.698;2022-12-17T13:43:23;5.90;78.10
70076;DHT22;63241;51.056;3.698;2022-12-17T13:45:54;5.70;79.00
70076;DHT22;63241;51.056;3.698;2022-12-17T13:48:25;5.70;79.60
70076;DHT22;63241;51.056;3.698;2022-12-17T13:50:55;5.70;79.90
70076;DHT22;63241;51.056;3.698;2022-12-17T13:57:21;5.10;79.60
70076;DHT22;63241;51.056;3.698;2022-12-17T13:59:52;4.60;81.60
70076;DHT22;63241;51.056;3.698;2022-12-17T14:02:29;4.60;83.80
70076;DHT22;63241;51.056;3.698;2022-12-17T14:05:02;4.50;83.80
70076;DHT22;63241;51.056;3.698;2022-12-17T14:11:00;4.20;85.10
70076;DHT22;63241;51.056;3.698;2022-12-17T14:13:47;3.90;85.30
70076;DHT22;63241;51.056;3.698;2022-12-17T14:16:17;3.70;86.50
70076;DHT22;63241;51.056;3.698;2022-12-17T14:22:08;3.40;88.50
70076;DHT22;63241;51.056;3.698;2022-12-17T14:24:36;3.20;90.00
70076;DHT22;63241;51.056;3.698;2022-12-17T14:27:16;3.10;90.50
70076;DHT22;63241;51.056;3.698;2022-12-17T14:29:43;2.90;90.90
70076;DHT22;63241;51.056;3.698;2022-12-17T20:41:34;-1.50;99.90
70076;DHT22;63241;51.056;3.698;2022-12-17T20:44:05;-1.50;99.90
70076;DHT22;63241;51.056;3.698;2022-12-17T20:46:33;-1.60;99.90
70076;DHT22;63241;51.056;3.698;2022-12-17T20:49:03;-1.60;99.90
70076;DHT22;63241;51.056;3.698;2022-12-17T20:55:21;-1.70;99.90
70076;DHT22;63241;51.056;3.698;2022-12-17T20:57:49;-1.80;99.90
70076;DHT22;63241;51.056;3.698;2022-12-17T21:00:16;-1.90;99.90
70076;DHT22;63241;51.056;3.698;2022-12-17T21:02:44;-1.90;99.90
70076;DHT22;63241;51.056;3.698;2022-12-17T21:05:38;-1.80;99.90
70076;DHT22;63241;51.056;3.698;2022-12-17T21:09:08;-1.80;99.90
70076;DHT22;63241;51.056;3.698;2022-12-17T21:11:38;-1.80;99.90
70076;DHT22;63241;51.056;3.698;2022-12-17T21:14:08;-1.80;99.90
70076;DHT22;63241;51.056;3.698;2022-12-17T21:16:37;-1.80;99.90
70076;DHT22;63241;51.056;3.698;2022-12-17T21:19:22;-1.80;99.90
70076;DHT22;63241;51.056;3.698;2022-12-17T21:22:13;-1.80;99.90
70076;DHT22;63241;51.056;3.698;2022-12-17T21:24:40;-1.80;99.90
70076;DHT22;63241;51.056;3.698;2022-12-17T21:27:08;-1.80;99.90
70076;DHT22;63241;51.056;3.698;2022-12-17T21:29:36;-1.80;99.90
70076;DHT22;63241;51.056;3.698;2022-12-17T21:35:44;-1.80;99.90
70076;DHT22;63241;51.056;3.698;2022-12-17T21:38:12;-1.80;99.90
70076;DHT22;63241;51.056;3.698;2022-12-17T21:40:41;-1.90;99.90
70076;DHT22;63241;51.056;3.698;2022-12-17T21:43:09;-1.90;99.90
70076;DHT22;63241;51.056;3.698;2022-12-17T22:50:36;-1.80;99.90
70076;DHT22;63241;51.056;3.698;2022-12-17T22:53:05;-1.90;99.90
70076;DHT22;63241;51.056;3.698;2022-12-17T23:07:21;-2.10;99.90
70076;DHT22;63241;51.056;3.698;2022-12-17T23:10:24;-2.10;99.90
70076;DHT22;63241;51.056;3.698;2022-12-17T23:12:56;-2.10;99.90
70076;DHT22;63241;51.056;3.698;2022-12-17T23:39:35;-2.10;99.90
70076;DHT22;63241;51.056;3.698;2022-12-17T23:42:03;-2.20;99.90
70076;DHT22;63241;51.056;3.698;2022-12-17T23:44:31;-2.10;99.90
70076;DHT22;63241;51.056;3.698;2022-12-17T23:46:59;-2.10;99.90
70076;DHT22;63241;51.056;3.698;2022-12-17T23:56:19;-2.20;99.90
70076;DHT22;63241;51.056;3.698;2022-12-17T23:58:52;-2.30;99.90
